createdAt,value
2023-04-18T00:00:01.985Z,99810.28
2023-04-18T00:02:29.567Z,99801.41
2023-04-18T00:04:56.435Z,99807.72
2023-04-18T00:07:23.042Z,99806.31
2023-04-18T00:09:49.434Z,99810.72
2023-04-18T00:12:15.860Z,99806.53
2023-04-18T00:14:42.261Z,99804.69
2023-04-18T00:17:08.813Z,99805.13
2023-04-18T00:19:37.030Z,99795.41
2023-04-18T00:22:03.436Z,99787.59
2023-04-18T00:24:29.841Z,99792.69
2023-04-18T00:26:57.065Z,99783.91
2023-04-18T00:29:23.505Z,99787.09
2023-04-18T00:31:49.923Z,99783.47
2023-04-18T00:34:16.400Z,99773.34
2023-04-18T00:36:42.849Z,99784.50
2023-04-18T00:39:09.323Z,99793.16
2023-04-18T00:41:35.753Z,99782.19
2023-04-18T00:44:02.184Z,99789.94
2023-04-18T00:46:28.617Z,99785.78
2023-04-18T00:48:55.068Z,99784.66
2023-04-18T00:51:21.661Z,99785.84
2023-04-18T00:53:48.228Z,99784.88
2023-04-18T00:56:14.736Z,99778.94
2023-04-18T00:58:41.309Z,99778.75
2023-04-18T01:01:08.870Z,99787.63
2023-04-18T01:03:37.258Z,99783.00
2023-04-18T01:06:04.086Z,99778.88
2023-04-18T01:08:30.793Z,99777.59
2023-04-18T01:10:57.256Z,99778.88
2023-04-18T01:13:23.725Z,99765.75
2023-04-18T01:15:50.860Z,99766.75
2023-04-18T01:18:17.836Z,99763.81
2023-04-18T01:20:47.297Z,99763.38
2023-04-18T01:23:14.390Z,99767.84
2023-04-18T01:25:40.957Z,99759.56
2023-04-18T01:28:07.811Z,99755.44
2023-04-18T01:30:34.523Z,99760.28
2023-04-18T01:33:02.113Z,99755.84
2023-04-18T01:35:28.700Z,99752.31
2023-04-18T01:37:55.153Z,99755.09
2023-04-18T01:40:21.942Z,99755.47
2023-04-18T01:42:48.417Z,99755.78
2023-04-18T01:45:16.016Z,99754.72
2023-04-18T01:47:43.375Z,99750.09
2023-04-18T01:50:12.497Z,99754.72
2023-04-18T01:52:38.941Z,99746.16
2023-04-18T01:55:06.158Z,99736.69
2023-04-18T01:57:34.044Z,99740.25
2023-04-18T02:00:00.596Z,99739.34
2023-04-18T02:02:27.143Z,99741.34
2023-04-18T02:04:53.749Z,99740.06
2023-04-18T02:07:20.183Z,99740.34
2023-04-18T02:09:46.600Z,99737.38
2023-04-18T02:12:13.079Z,99740.47
2023-04-18T02:14:39.514Z,99741.84
2023-04-18T02:17:06.204Z,99741.16
2023-04-18T02:19:32.622Z,99738.72
2023-04-18T02:21:59.060Z,99733.41
2023-04-18T02:24:25.446Z,99739.00
2023-04-18T02:26:51.958Z,99734.06
2023-04-18T02:29:18.359Z,99739.69
2023-04-18T02:31:44.926Z,99734.50
2023-04-18T02:34:11.595Z,99731.53
2023-04-18T02:36:38.218Z,99738.63
2023-04-18T02:39:04.639Z,99734.38
2023-04-18T02:41:31.196Z,99735.25
2023-04-18T02:43:58.990Z,99734.56
2023-04-18T02:46:25.710Z,99742.72
2023-04-18T02:48:52.217Z,99735.84
2023-04-18T02:51:19.853Z,99740.75
2023-04-18T02:53:46.675Z,99731.19
2023-04-18T02:56:16.965Z,99736.63
2023-04-18T02:58:43.450Z,99733.28
2023-04-18T03:01:09.940Z,99731.41
2023-04-18T03:03:36.453Z,99736.63
2023-04-18T03:06:02.941Z,99726.28
2023-04-18T03:08:29.335Z,99728.53
2023-04-18T03:10:56.486Z,99736.50
2023-04-18T03:13:22.990Z,99729.03
2023-04-18T03:15:50.930Z,99735.81
2023-04-18T03:18:17.358Z,99732.88
2023-04-18T03:20:43.767Z,99737.19
2023-04-18T03:23:10.187Z,99742.72
2023-04-18T03:25:37.135Z,99745.84
2023-04-18T03:28:03.610Z,99735.41
2023-04-18T03:30:30.054Z,99740.06
2023-04-18T03:32:56.575Z,99739.53
2023-04-18T03:35:23.194Z,99744.09
2023-04-18T03:37:49.593Z,99734.25
2023-04-18T03:40:16.145Z,99735.81
2023-04-18T03:42:42.552Z,99743.66
2023-04-18T03:45:09.428Z,99734.25
2023-04-18T03:47:35.901Z,99735.53
2023-04-18T03:50:02.380Z,99733.63
2023-04-18T03:52:29.852Z,99736.03
2023-04-18T03:54:56.489Z,99740.47
2023-04-18T03:57:23.303Z,99734.66
2023-04-18T03:59:49.843Z,99728.44
2023-04-18T04:02:16.424Z,99732.28
2023-04-18T04:04:43.044Z,99732.41
2023-04-18T04:07:09.545Z,99728.53
2023-04-18T04:09:35.978Z,99737.00
2023-04-18T04:12:02.941Z,99736.44
2023-04-18T04:14:29.380Z,99738.75
2023-04-18T04:16:55.880Z,99730.19
2023-04-18T04:19:22.304Z,99735.28
2023-04-18T04:21:48.920Z,99740.72
2023-04-18T04:24:15.879Z,99739.69
2023-04-18T04:26:43.027Z,99737.44
2023-04-18T04:29:10.729Z,99740.88
2023-04-18T04:31:37.525Z,99742.38
2023-04-18T04:34:04.928Z,99743.63
2023-04-18T04:36:33.301Z,99740.19
2023-04-18T04:38:59.789Z,99748.78
2023-04-18T04:41:27.945Z,99746.66
2023-04-18T04:43:54.460Z,99742.78
2023-04-18T04:46:21.149Z,99756.78
2023-04-18T04:48:47.718Z,99752.34
2023-04-18T04:51:14.201Z,99757.53
2023-04-18T04:53:40.709Z,99761.88
2023-04-18T04:56:07.382Z,99755.00
2023-04-18T04:58:33.774Z,99750.09
2023-04-18T05:01:02.427Z,99760.41
2023-04-18T05:03:29.124Z,99751.19
2023-04-18T05:05:55.914Z,99756.38
2023-04-18T05:08:22.455Z,99742.53
2023-04-18T05:10:49.971Z,99755.44
2023-04-18T05:13:16.475Z,99745.22
2023-04-18T05:15:42.948Z,99750.31
2023-04-18T05:18:09.555Z,99755.81
2023-04-18T05:20:36.040Z,99751.88
2023-04-18T05:23:02.452Z,99752.88
2023-04-18T05:25:29.765Z,99756.59
2023-04-18T05:27:56.184Z,99751.22
2023-04-18T05:30:22.696Z,99753.66
2023-04-18T05:32:49.223Z,99764.97
2023-04-18T05:35:15.796Z,99760.84
2023-04-18T05:37:42.299Z,99765.50
2023-04-18T05:40:09.206Z,99760.78
2023-04-18T05:42:35.771Z,99758.59
2023-04-18T05:45:02.242Z,99760.97
2023-04-18T05:47:30.258Z,99769.22
2023-04-18T05:49:56.693Z,99767.84
2023-04-18T05:52:23.156Z,99768.13
2023-04-18T05:54:49.588Z,99763.53
2023-04-18T05:57:16.022Z,99765.91
2023-04-18T05:59:42.826Z,99761.81
2023-04-18T06:02:13.312Z,99771.91
2023-04-18T06:04:41.861Z,99771.41
2023-04-18T06:07:09.281Z,99761.41
2023-04-18T06:09:35.767Z,99766.34
2023-04-18T06:12:02.197Z,99772.03
2023-04-18T06:14:28.889Z,99768.69
2023-04-18T06:16:55.511Z,99766.56
2023-04-18T06:19:22.141Z,99774.16
2023-04-18T06:21:49.081Z,99772.06
2023-04-18T06:24:16.008Z,99774.75
2023-04-18T06:26:42.836Z,99776.97
2023-04-18T06:29:09.265Z,99774.94
2023-04-18T06:31:35.774Z,99784.31
2023-04-18T06:34:02.228Z,99775.41
2023-04-18T06:36:28.675Z,99780.97
2023-04-18T06:38:55.141Z,99777.28
2023-04-18T06:41:21.563Z,99782.25
2023-04-18T06:44:02.073Z,99787.69
2023-04-18T06:46:30.101Z,99784.88
2023-04-18T06:48:56.834Z,99788.63
2023-04-18T06:51:23.267Z,99793.13
2023-04-18T06:53:52.680Z,99783.38
2023-04-18T06:56:22.246Z,99795.28
2023-04-18T06:58:49.199Z,99796.19
2023-04-18T07:01:15.882Z,99799.56
2023-04-18T07:03:42.449Z,99796.94
2023-04-18T07:06:10.462Z,99799.38
2023-04-18T07:08:37.145Z,99786.09
2023-04-18T07:11:03.599Z,99801.59
2023-04-18T07:13:29.996Z,99795.03
2023-04-18T07:15:56.738Z,99796.75
2023-04-18T07:18:34.262Z,99794.28
2023-04-18T07:21:07.101Z,99801.50
2023-04-18T07:23:33.577Z,99799.75
2023-04-18T07:26:02.424Z,99807.53
2023-04-18T07:28:29.468Z,99804.69
2023-04-18T07:30:56.975Z,99807.19
2023-04-18T07:33:24.186Z,99804.19
2023-04-18T07:35:51.401Z,99812.06
2023-04-18T07:38:17.862Z,99805.06
2023-04-18T07:40:47.376Z,99798.63
2023-04-18T07:43:13.820Z,99794.13
2023-04-18T07:45:43.434Z,99800.84
2023-04-18T07:48:09.907Z,99812.81
2023-04-18T07:50:36.418Z,99807.53
2023-04-18T07:53:03.266Z,99813.81
2023-04-18T07:55:29.898Z,99806.84
2023-04-18T07:57:56.327Z,99808.38
2023-04-18T08:00:22.813Z,99800.94
2023-04-18T08:02:49.449Z,99801.94
2023-04-18T08:05:16.192Z,99812.34
2023-04-18T08:07:43.278Z,99807.81
2023-04-18T08:10:09.774Z,99797.72
2023-04-18T08:12:36.689Z,99797.13
2023-04-18T08:15:04.021Z,99798.59
2023-04-18T08:17:31.054Z,99806.53
2023-04-18T08:19:57.916Z,99800.50
2023-04-18T08:22:24.396Z,99787.38
2023-04-18T08:25:03.774Z,99804.28
2023-04-18T08:27:32.353Z,99793.78
2023-04-18T08:29:58.853Z,99791.69
2023-04-18T08:32:25.897Z,99796.34
2023-04-18T08:34:52.385Z,99783.78
2023-04-18T08:37:18.831Z,99786.16
2023-04-18T08:39:45.262Z,99784.97
2023-04-18T08:42:13.065Z,99792.56
2023-04-18T08:44:39.600Z,99791.81
2023-04-18T08:47:08.966Z,99785.66
2023-04-18T08:49:36.107Z,99785.25
2023-04-18T08:52:02.805Z,99786.47
2023-04-18T08:54:30.482Z,99795.94
2023-04-18T08:57:07.436Z,99807.50
2023-04-18T08:59:35.570Z,99817.19
2023-04-18T09:02:08.729Z,99811.63
2023-04-18T09:04:44.922Z,99810.75
2023-04-18T09:07:13.306Z,99813.97
2023-04-18T09:09:49.990Z,99806.81
2023-04-18T09:12:19.554Z,99812.91
2023-04-18T09:14:47.117Z,99823.06
2023-04-18T09:17:16.267Z,99814.69
2023-04-18T09:19:48.859Z,99821.34
2023-04-18T09:22:16.204Z,99828.16
2023-04-18T09:24:57.423Z,99820.53
2023-04-18T09:27:24.498Z,99825.28
2023-04-18T09:29:52.451Z,99823.28
2023-04-18T09:32:27.483Z,99823.03
2023-04-18T09:34:58.065Z,99829.75
2023-04-18T09:37:25.973Z,99820.53
2023-04-18T09:39:52.658Z,99837.19
2023-04-18T09:42:19.597Z,99849.69
2023-04-18T09:44:59.855Z,99833.78
2023-04-18T09:47:27.763Z,99825.13
2023-04-18T09:49:54.227Z,99815.03
2023-04-18T09:52:21.546Z,99832.44
2023-04-18T09:54:48.905Z,99840.09
2023-04-18T09:57:16.711Z,99822.09
2023-04-18T09:59:58.850Z,99824.34
2023-04-18T10:02:29.252Z,99823.16
2023-04-18T10:04:57.194Z,99819.81
2023-04-18T10:07:24.766Z,99812.69
2023-04-18T10:09:51.522Z,99822.81
2023-04-18T10:12:18.512Z,99820.25
2023-04-18T10:14:45.776Z,99805.09
2023-04-18T10:17:14.531Z,99807.25
2023-04-18T10:19:41.977Z,99819.97
2023-04-18T10:22:08.522Z,99825.09
2023-04-18T10:24:53.824Z,99817.38
2023-04-18T10:28:05.929Z,99824.41
2023-04-18T10:30:38.930Z,99827.06
2023-04-18T10:33:31.682Z,99829.88
2023-04-18T10:36:26.757Z,99828.66
2023-04-18T10:38:54.690Z,99823.81
2023-04-18T10:41:23.832Z,99812.50
2023-04-18T10:44:23.719Z,99824.16
2023-04-18T10:46:50.736Z,99818.38
2023-04-18T10:49:21.655Z,99815.72
2023-04-18T10:51:59.973Z,99817.72
2023-04-18T10:54:52.081Z,99818.44
2023-04-18T10:57:18.610Z,99819.81
2023-04-18T10:59:48.886Z,99808.91
2023-04-18T11:02:28.879Z,99803.59
2023-04-18T11:05:07.070Z,99805.84
2023-04-18T11:07:36.567Z,99802.38
2023-04-18T11:10:04.609Z,99809.88
2023-04-18T11:12:33.053Z,99809.91
2023-04-18T11:15:02.855Z,99807.44
2023-04-18T11:17:35.639Z,99792.63
2023-04-18T11:20:09.328Z,99803.75
2023-04-18T11:22:46.065Z,99799.84
2023-04-18T11:25:12.692Z,99793.25
2023-04-18T11:27:41.995Z,99790.75
2023-04-18T11:30:08.786Z,99798.13
2023-04-18T11:32:36.110Z,99797.38
2023-04-18T11:35:03.534Z,99802.06
2023-04-18T11:37:32.766Z,99801.94
2023-04-18T11:39:59.259Z,99810.16
2023-04-18T11:42:31.833Z,99812.16
2023-04-18T11:44:58.288Z,99803.81
2023-04-18T11:47:33.859Z,99810.78
2023-04-18T11:50:02.748Z,99812.81
2023-04-18T11:52:30.650Z,99804.41
2023-04-18T11:55:12.994Z,99807.59
2023-04-18T11:57:40.122Z,99796.75
2023-04-18T12:00:08.884Z,99808.66
2023-04-18T12:02:43.884Z,99810.56
2023-04-18T12:05:11.984Z,99801.56
2023-04-18T12:07:40.345Z,99810.09
2023-04-18T12:10:28.439Z,99811.91
2023-04-18T12:12:57.451Z,99814.69
2023-04-18T12:15:27.265Z,99811.88
2023-04-18T12:17:59.127Z,99803.44
2023-04-18T12:20:25.827Z,99810.59
2023-04-18T12:22:54.155Z,99811.69
2023-04-18T12:25:25.258Z,99807.75
2023-04-18T12:27:56.626Z,99804.13
2023-04-18T12:30:25.508Z,99790.31
2023-04-18T12:32:54.014Z,99799.81
2023-04-18T12:35:20.994Z,99792.97
2023-04-18T12:37:48.297Z,99796.19
2023-04-18T12:40:15.104Z,99782.53
2023-04-18T12:42:42.310Z,99794.09
2023-04-18T12:45:10.594Z,99797.34
2023-04-18T12:47:38.426Z,99791.78
2023-04-18T12:50:06.776Z,99798.69
2023-04-18T12:52:33.523Z,99789.78
2023-04-18T12:55:00.009Z,99793.50
2023-04-18T12:57:26.821Z,99795.97
2023-04-18T12:59:53.313Z,99785.84
2023-04-18T13:02:19.860Z,99795.06
2023-04-18T13:04:46.495Z,99789.53
2023-04-18T13:07:13.133Z,99792.31
2023-04-18T13:09:40.641Z,99794.81
2023-04-18T13:12:07.061Z,99795.75
2023-04-18T13:14:33.502Z,99797.38
2023-04-18T13:16:59.918Z,99791.69
2023-04-18T13:19:26.430Z,99796.56
2023-04-18T13:21:53.265Z,99786.13
2023-04-18T13:24:19.757Z,99784.50
2023-04-18T13:26:46.221Z,99777.16
2023-04-18T13:29:12.970Z,99781.91
2023-04-18T13:31:39.716Z,99770.38
2023-04-18T13:34:06.293Z,99780.91
2023-04-18T13:36:34.703Z,99778.75
2023-04-18T13:39:01.886Z,99775.09
2023-04-18T13:41:28.882Z,99779.97
2023-04-18T13:43:55.688Z,99778.63
2023-04-18T13:46:23.334Z,99788.84
2023-04-18T13:48:50.041Z,99772.53
2023-04-18T13:51:16.457Z,99775.94
2023-04-18T13:53:42.883Z,99774.72
2023-04-18T13:56:10.509Z,99773.78
2023-04-18T13:58:36.914Z,99773.91
2023-04-18T14:01:03.331Z,99767.94
2023-04-18T14:03:30.012Z,99762.97
2023-04-18T14:05:56.827Z,99758.22
2023-04-18T14:08:23.265Z,99754.59
2023-04-18T14:10:49.715Z,99749.22
2023-04-18T14:13:16.587Z,99749.66
2023-04-18T14:15:42.987Z,99745.16
2023-04-18T14:18:09.455Z,99751.81
2023-04-18T14:20:36.323Z,99751.31
2023-04-18T14:23:02.840Z,99752.56
2023-04-18T14:25:29.797Z,99748.03
2023-04-18T14:28:09.326Z,99750.16
2023-04-18T14:30:36.550Z,99751.41
2023-04-18T14:33:03.776Z,99743.03
2023-04-18T14:35:31.039Z,99744.47
2023-04-18T14:37:57.473Z,99737.72
2023-04-18T14:40:24.328Z,99741.91
2023-04-18T14:42:50.750Z,99736.63
2023-04-18T14:45:17.231Z,99734.19
2023-04-18T14:47:44.032Z,99738.84
2023-04-18T14:50:15.247Z,99730.09
2023-04-18T14:52:42.027Z,99735.63
2023-04-18T14:55:14.857Z,99730.16
2023-04-18T14:57:41.332Z,99721.06
2023-04-18T15:00:10.642Z,99728.53
2023-04-18T15:02:42.608Z,99719.69
2023-04-18T15:05:10.227Z,99718.31
2023-04-18T15:07:37.793Z,99718.19
2023-04-18T15:10:05.123Z,99715.28
2023-04-18T15:12:31.637Z,99714.38
2023-04-18T15:14:59.466Z,99712.50
2023-04-18T15:17:26.089Z,99724.09
2023-04-18T15:19:52.589Z,99706.56
2023-04-18T15:22:19.028Z,99712.69
2023-04-18T15:24:45.789Z,99713.78
2023-04-18T15:27:14.916Z,99708.78
2023-04-18T15:29:41.402Z,99709.72
2023-04-18T15:32:08.655Z,99709.09
2023-04-18T15:34:41.803Z,99705.31
2023-04-18T15:37:08.327Z,99710.00
2023-04-18T15:39:39.018Z,99708.34
2023-04-18T15:42:05.826Z,99703.75
2023-04-18T15:44:32.265Z,99701.81
2023-04-18T15:47:04.915Z,99705.75
2023-04-18T15:49:31.951Z,99700.84
2023-04-18T15:51:58.330Z,99702.44
2023-04-18T15:54:24.824Z,99704.06
2023-04-18T15:56:51.587Z,99698.97
2023-04-18T15:59:17.970Z,99704.94
2023-04-18T16:01:46.122Z,99703.06
2023-04-18T16:04:13.187Z,99699.97
2023-04-18T16:06:40.444Z,99696.66
2023-04-18T16:09:06.947Z,99708.59
2023-04-18T16:11:33.399Z,99705.09
2023-04-18T16:13:59.834Z,99698.16
2023-04-18T16:16:28.332Z,99705.75
2023-04-18T16:18:54.897Z,99704.22
2023-04-18T16:21:21.449Z,99711.72
2023-04-18T16:23:48.667Z,99719.38
2023-04-18T16:26:15.170Z,99708.09
2023-04-18T16:28:42.025Z,99702.81
2023-04-18T16:31:08.576Z,99709.88
2023-04-18T16:33:35.038Z,99711.81
2023-04-18T16:36:04.596Z,99720.81
2023-04-18T16:38:31.192Z,99711.25
2023-04-18T16:40:58.658Z,99712.75
2023-04-18T16:43:26.949Z,99712.19
2023-04-18T16:45:56.460Z,99711.38
2023-04-18T16:48:23.983Z,99707.97
2023-04-18T16:50:50.677Z,99718.31
2023-04-18T16:53:17.259Z,99711.25
2023-04-18T16:55:43.707Z,99716.53
2023-04-18T16:58:11.127Z,99727.38
2023-04-18T17:00:38.517Z,99722.41
2023-04-18T17:03:07.249Z,99720.69
2023-04-18T17:05:33.820Z,99724.06
2023-04-18T17:08:00.547Z,99732.25
2023-04-18T17:10:29.218Z,99724.06
2023-04-18T17:12:55.955Z,99714.41
2023-04-18T17:15:22.766Z,99725.31
2023-04-18T17:17:50.435Z,99717.31
2023-04-18T17:20:17.743Z,99712.41
2023-04-18T17:22:44.243Z,99718.94
2023-04-18T17:25:10.761Z,99725.78
2023-04-18T17:27:39.343Z,99720.63
2023-04-18T17:30:06.909Z,99720.25
2023-04-18T17:32:33.392Z,99718.44
2023-04-18T17:35:01.879Z,99725.63
2023-04-18T17:37:28.333Z,99727.19
2023-04-18T17:39:57.034Z,99724.09
2023-04-18T17:42:23.438Z,99731.81
2023-04-18T17:44:49.864Z,99726.50
2023-04-18T17:47:17.948Z,99726.41
2023-04-18T17:49:44.469Z,99723.97
2023-04-18T17:52:11.220Z,99727.13
2023-04-18T17:54:37.655Z,99735.06
2023-04-18T17:57:04.383Z,99732.41
2023-04-18T17:59:30.834Z,99731.28
2023-04-18T18:01:58.505Z,99735.56
2023-04-18T18:04:26.632Z,99733.97
2023-04-18T18:06:57.112Z,99737.19
2023-04-18T18:09:23.599Z,99738.69
2023-04-18T18:11:50.073Z,99740.41
2023-04-18T18:14:16.778Z,99738.44
2023-04-18T18:16:43.256Z,99739.28
2023-04-18T18:19:09.792Z,99743.59
2023-04-18T18:21:36.513Z,99745.38
2023-04-18T18:24:03.026Z,99741.69
2023-04-18T18:26:29.541Z,99744.34
2023-04-18T18:28:55.963Z,99741.09
2023-04-18T18:31:25.660Z,99742.53
2023-04-18T18:33:52.171Z,99756.91
2023-04-18T18:36:18.626Z,99748.25
2023-04-18T18:38:45.179Z,99755.22
2023-04-18T18:41:11.598Z,99756.78
2023-04-18T18:43:38.036Z,99757.72
2023-04-18T18:46:04.571Z,99758.31
2023-04-18T18:48:32.698Z,99760.06
2023-04-18T18:50:59.198Z,99768.06
2023-04-18T18:53:25.695Z,99768.06
2023-04-18T18:55:52.140Z,99774.44
2023-04-18T18:58:18.578Z,99776.09
2023-04-18T19:00:46.841Z,99784.72
2023-04-18T19:03:13.394Z,99783.81
2023-04-18T19:05:40.089Z,99783.19
2023-04-18T19:08:06.721Z,99792.31
2023-04-18T19:10:33.216Z,99782.66
2023-04-18T19:13:00.334Z,99793.22
2023-04-18T19:15:26.970Z,99790.00
2023-04-18T19:17:53.449Z,99790.78
2023-04-18T19:20:20.205Z,99792.78
2023-04-18T19:22:46.685Z,99801.78
2023-04-18T19:25:13.139Z,99802.94
2023-04-18T19:27:39.612Z,99802.25
2023-04-18T19:30:06.747Z,99802.25
2023-04-18T19:32:33.240Z,99807.06
2023-04-18T19:34:59.969Z,99808.72
2023-04-18T19:37:26.362Z,99812.59
2023-04-18T19:39:52.774Z,99812.31
2023-04-18T19:42:19.289Z,99815.53
2023-04-18T19:44:45.738Z,99814.59
2023-04-18T19:47:12.207Z,99816.19
2023-04-18T19:49:38.648Z,99814.72
2023-04-18T19:52:06.052Z,99818.47
2023-04-18T19:54:35.745Z,99825.75
2023-04-18T19:57:02.714Z,99821.16
2023-04-18T19:59:29.121Z,99826.28
2023-04-18T20:01:56.686Z,99815.28
2023-04-18T20:04:25.674Z,99825.44
2023-04-18T20:06:53.451Z,99826.59
2023-04-18T20:09:19.885Z,99829.94
2023-04-18T20:11:47.691Z,99833.75
2023-04-18T20:14:14.153Z,99827.56
2023-04-18T20:16:42.752Z,99823.31
2023-04-18T20:21:38.881Z,99826.72
2023-04-18T20:24:05.638Z,99826.50
2023-04-18T20:26:32.152Z,99841.84
2023-04-18T20:28:59.036Z,99835.91
2023-04-18T20:31:25.473Z,99839.19
2023-04-18T20:33:51.909Z,99837.09
2023-04-18T20:36:18.302Z,99850.78
2023-04-18T20:38:44.697Z,99853.41
2023-04-18T20:41:14.797Z,99851.16
2023-04-18T20:43:43.397Z,99848.94
2023-04-18T20:46:12.751Z,99851.41
2023-04-18T20:48:39.992Z,99847.78
2023-04-18T20:51:06.669Z,99853.19
2023-04-18T20:53:33.130Z,99853.16
2023-04-18T20:56:02.133Z,99861.13
2023-04-18T20:58:29.711Z,99867.63
2023-04-18T21:00:56.123Z,99857.81
2023-04-18T21:03:22.717Z,99858.25
2023-04-18T21:05:49.236Z,99866.94
2023-04-18T21:08:15.619Z,99870.31
2023-04-18T21:10:42.107Z,99869.16
2023-04-18T21:13:09.201Z,99866.28
2023-04-18T21:15:35.799Z,99870.81
2023-04-18T21:18:02.413Z,99871.88
2023-04-18T21:20:29.074Z,99883.19
2023-04-18T21:22:55.478Z,99876.69
2023-04-18T21:25:22.078Z,99883.03
2023-04-18T21:27:50.433Z,99879.56
2023-04-18T21:30:17.081Z,99887.16
2023-04-18T21:32:43.523Z,99892.28
2023-04-18T21:35:10.199Z,99887.03
2023-04-18T21:37:36.653Z,99889.63
2023-04-18T21:40:04.529Z,99892.63
2023-04-18T21:42:30.971Z,99890.06
2023-04-18T21:44:57.481Z,99896.13
2023-04-18T21:47:25.842Z,99895.22
2023-04-18T21:49:52.443Z,99902.69
2023-04-18T21:52:18.862Z,99894.25
2023-04-18T21:54:45.406Z,99890.72
2023-04-18T21:57:11.812Z,99896.22
2023-04-18T21:59:38.278Z,99889.69
2023-04-18T22:02:05.475Z,99893.31
2023-04-18T22:04:32.040Z,99890.19
2023-04-18T22:06:58.489Z,99892.88
2023-04-18T22:09:24.960Z,99899.41
2023-04-18T22:11:51.682Z,99899.41
2023-04-18T22:14:19.908Z,99901.19
2023-04-18T22:16:46.392Z,99887.91
2023-04-18T22:19:14.121Z,99885.00
2023-04-18T22:21:40.639Z,99886.50
2023-04-18T22:24:07.732Z,99883.59
2023-04-18T22:26:34.224Z,99886.16
2023-04-18T22:29:00.739Z,99882.63
2023-04-18T22:31:27.328Z,99890.75
2023-04-18T22:33:53.834Z,99880.84
2023-04-18T22:36:20.293Z,99881.63
2023-04-18T22:38:46.705Z,99892.50
2023-04-18T22:41:13.146Z,99894.09
2023-04-18T22:43:39.584Z,99888.41
2023-04-18T22:46:06.167Z,99890.38
2023-04-18T22:48:37.729Z,99888.09
2023-04-18T22:51:04.184Z,99888.84
2023-04-18T22:53:30.597Z,99885.13
2023-04-18T22:55:57.031Z,99889.28
2023-04-18T22:58:23.434Z,99890.13
2023-04-18T23:00:50.275Z,99890.66
2023-04-18T23:03:16.833Z,99892.09
2023-04-18T23:05:43.373Z,99885.19
2023-04-18T23:08:11.811Z,99897.47
2023-04-18T23:10:38.656Z,99896.16
2023-04-18T23:13:05.095Z,99891.84
2023-04-18T23:15:31.538Z,99890.91
2023-04-18T23:17:58.027Z,99890.22
2023-04-18T23:20:24.477Z,99897.41
2023-04-18T23:22:51.680Z,99894.28
2023-04-18T23:25:19.387Z,99888.97
2023-04-18T23:27:46.089Z,99893.19
2023-04-18T23:30:12.836Z,99892.06
2023-04-18T23:32:39.381Z,99891.16
2023-04-18T23:35:06.556Z,99894.44
2023-04-18T23:37:33.115Z,99883.19
2023-04-18T23:39:59.951Z,99887.81
2023-04-18T23:42:26.411Z,99887.59
2023-04-18T23:44:52.907Z,99882.69
2023-04-18T23:47:19.400Z,99881.88
2023-04-18T23:49:45.839Z,99891.06
2023-04-18T23:52:12.231Z,99884.19
2023-04-18T23:54:38.648Z,99880.53
2023-04-18T23:57:05.154Z,99883.28
2023-04-18T23:59:31.636Z,99888.13
